sensor_id;sensor_type;location;lat;lon;timestamp;temperature;humidity
63202;DHT22;49296;48.188;11.566;2024-02-21T08:01:27;6.98;68.40
63202;DHT22;49296;48.188;11.566;2024-02-21T08:03:54;7.12;67.38
63202;DHT22;49296;48.188;11.566;2024-02-21T08:06:21;7.28;67.88
63202;DHT22;49296;48.188;11.566;2024-02-21T08:08:47;7.43;66.95
63202;DHT22;49296;48.188;11.566;2024-02-21T08:11:14;7.51;65.93
63202;DHT22;49296;48.188;11.566;2024-02-21T08:13:41;7.61;66.40
63202;DHT22;49296;48.188;11.566;2024-02-21T08:16:08;7.71;65.45
63202;DHT22;49296;48.188;11.566;2024-02-21T08:18:36;7.83;65.31
63202;DHT22;49296;48.188;11.566;2024-02-21T08:21:04;7.88;64.52
63202;DHT22;49296;48.188;11.566;2024-02-21T08:23:32;7.96;64.30
63202;DHT22;49296;48.188;11.566;2024-02-21T08:25:58;8.00;64.26
63202;DHT22;49296;48.188;11.566;2024-02-21T08:28:25;8.09;64.10
63202;DHT22;49296;48.188;11.566;2024-02-21T08:30:52;8.06;63.66
63202;DHT22;49296;48.188;11.566;2024-02-21T08:33:18;8.10;63.69
63202;DHT22;49296;48.188;11.566;2024-02-21T08:35:51;7.92;63.68
63202;DHT22;49296;48.188;11.566;2024-02-21T08:38:18;7.95;63.78
63202;DHT22;49296;48.188;11.566;2024-02-21T08:40:45;7.97;64.08
63202;DHT22;49296;48.188;11.566;2024-02-21T08:43:11;8.07;63.38
63202;DHT22;49296;48.188;11.566;2024-02-21T08:45:38;8.16;63.21
63202;DHT22;49296;48.188;11.566;2024-02-21T08:48:06;8.17;63.63
63202;DHT22;49296;48.188;11.566;2024-02-21T08:50:34;8.23;63.77
63202;DHT22;49296;48.188;11.566;2024-02-21T08:53:03;8.34;62.25
63202;DHT22;49296;48.188;11.566;2024-02-21T08:55:30;8.45;62.15
63202;DHT22;49296;48.188;11.566;2024-02-21T08:57:56;8.67;69.16
63202;DHT22;49296;48.188;11.566;2024-02-21T09:00:23;8.62;66.02
63202;DHT22;49296;48.188;11.566;2024-02-21T09:02:52;8.62;63.46
63202;DHT22;49296;48.188;11.566;2024-02-21T09:05:21;8.50;63.44
63202;DHT22;49296;48.188;11.566;2024-02-21T09:07:50;8.52;62.90
63202;DHT22;49296;48.188;11.566;2024-02-21T09:10:18;8.64;64.00
63202;DHT22;49296;48.188;11.566;2024-02-21T09:12:45;8.62;62.81
63202;DHT22;49296;48.188;11.566;2024-02-21T09:15:12;8.61;62.16
63202;DHT22;49296;48.188;11.566;2024-02-21T09:17:39;8.65;63.00
63202;DHT22;49296;48.188;11.566;2024-02-21T09:20:07;8.71;62.63
63202;DHT22;49296;48.188;11.566;2024-02-21T09:22:37;8.72;62.51
63202;DHT22;49296;48.188;11.566;2024-02-21T09:25:06;8.75;62.35
63202;DHT22;49296;48.188;11.566;2024-02-21T09:27:35;8.71;62.31
63202;DHT22;49296;48.188;11.566;2024-02-21T09:30:02;8.75;61.30
63202;DHT22;49296;48.188;11.566;2024-02-21T09:32:30;8.80;61.68
63202;DHT22;49296;48.188;11.566;2024-02-21T09:34:57;8.87;61.59
63202;DHT22;49296;48.188;11.566;2024-02-21T09:37:24;8.93;60.56
63202;DHT22;49296;48.188;11.566;2024-02-21T09:39:51;8.92;60.19
63202;DHT22;49296;48.188;11.566;2024-02-21T09:42:20;9.03;59.77
63202;DHT22;49296;48.188;11.566;2024-02-21T09:44:50;8.97;60.92
63202;DHT22;49296;48.188;11.566;2024-02-21T09:47:20;9.16;65.19
63202;DHT22;49296;48.188;11.566;2024-02-21T09:49:49;9.17;60.55
63202;DHT22;49296;48.188;11.566;2024-02-21T09:52:16;9.19;59.59
63202;DHT22;49296;48.188;11.566;2024-02-21T09:54:44;9.28;60.55
63202;DHT22;49296;48.188;11.566;2024-02-21T09:57:10;9.30;59.90
63202;DHT22;49296;48.188;11.566;2024-02-21T09:59:39;9.45;61.47
63202;DHT22;49296;48.188;11.566;2024-02-21T10:02:08;9.32;59.48
63202;DHT22;49296;48.188;11.566;2024-02-21T10:04:37;9.44;58.92
63202;DHT22;49296;48.188;11.566;2024-02-21T10:07:04;9.42;58.72
63202;DHT22;49296;48.188;11.566;2024-02-21T10:09:31;9.54;59.13
63202;DHT22;49296;48.188;11.566;2024-02-21T10:12:08;9.37;58.25
63202;DHT22;49296;48.188;11.566;2024-02-21T10:14:34;9.56;59.40
63202;DHT22;49296;48.188;11.566;2024-02-21T10:17:01;9.68;58.55
63202;DHT22;49296;48.188;11.566;2024-02-21T10:19:31;9.81;57.96
63202;DHT22;49296;48.188;11.566;2024-02-21T10:22:02;9.85;57.89
63202;DHT22;49296;48.188;11.566;2024-02-21T10:24:30;9.81;58.27
63202;DHT22;49296;48.188;11.566;2024-02-21T10:27:05;9.90;57.60
63202;DHT22;49296;48.188;11.566;2024-02-21T10:29:33;9.97;57.04
63202;DHT22;49296;48.188;11.566;2024-02-21T10:32:07;10.00;56.69
63202;DHT22;49296;48.188;11.566;2024-02-21T10:34:36;10.09;56.74
63202;DHT22;49296;48.188;11.566;2024-02-21T10:37:03;10.22;56.45
63202;DHT22;49296;48.188;11.566;2024-02-21T10:39:30;10.27;55.98
63202;DHT22;49296;48.188;11.566;2024-02-21T10:42:00;10.30;55.96
63202;DHT22;49296;48.188;11.566;2024-02-21T10:44:30;10.33;56.05
63202;DHT22;49296;48.188;11.566;2024-02-21T10:46:57;10.41;56.29
63202;DHT22;49296;48.188;11.566;2024-02-21T10:49:24;10.41;55.24
63202;DHT22;49296;48.188;11.566;2024-02-21T10:52:10;10.42;55.22
63202;DHT22;49296;48.188;11.566;2024-02-21T10:54:44;10.52;54.71
63202;DHT22;49296;48.188;11.566;2024-02-21T10:57:12;10.63;54.68
63202;DHT22;49296;48.188;11.566;2024-02-21T10:59:40;10.73;54.35
63202;DHT22;49296;48.188;11.566;2024-02-21T11:02:07;10.83;54.05
63202;DHT22;49296;48.188;11.566;2024-02-21T11:04:34;10.84;52.79
63202;DHT22;49296;48.188;11.566;2024-02-21T11:07:04;10.79;53.61
63202;DHT22;49296;48.188;11.566;2024-02-21T11:09:32;10.86;53.22
63202;DHT22;49296;48.188;11.566;2024-02-21T11:12:02;10.96;52.81
63202;DHT22;49296;48.188;11.566;2024-02-21T11:14:29;10.92;53.01
63202;DHT22;49296;48.188;11.566;2024-02-21T11:16:58;11.10;52.86
63202;DHT22;49296;48.188;11.566;2024-02-21T11:19:26;11.15;52.65
63202;DHT22;49296;48.188;11.566;2024-02-21T11:21:54;11.21;51.92
63202;DHT22;49296;48.188;11.566;2024-02-21T11:24:27;11.31;51.93
63202;DHT22;49296;48.188;11.566;2024-02-21T11:26:55;11.41;51.40
63202;DHT22;49296;48.188;11.566;2024-02-21T11:29:25;11.48;50.87
63202;DHT22;49296;48.188;11.566;2024-02-21T11:31:53;11.51;50.36
63202;DHT22;49296;48.188;11.566;2024-02-21T11:34:20;11.61;49.64
63202;DHT22;49296;48.188;11.566;2024-02-21T11:36:47;11.72;50.68
63202;DHT22;49296;48.188;11.566;2024-02-21T11:39:18;11.72;48.34
63202;DHT22;49296;48.188;11.566;2024-02-21T11:42:02;11.89;48.60
63202;DHT22;49296;48.188;11.566;2024-02-21T11:44:29;11.86;47.12
63202;DHT22;49296;48.188;11.566;2024-02-21T11:46:56;11.87;46.90
63202;DHT22;49296;48.188;11.566;2024-02-21T11:49:25;11.86;46.89
63202;DHT22;49296;48.188;11.566;2024-02-21T11:51:58;11.83;47.53
63202;DHT22;49296;48.188;11.566;2024-02-21T11:54:25;11.82;46.54
63202;DHT22;49296;48.188;11.566;2024-02-21T11:56:53;11.86;46.97
63202;DHT22;49296;48.188;11.566;2024-02-21T11:59:20;11.89;46.89
63202;DHT22;49296;48.188;11.566;2024-02-21T12:01:47;12.04;47.27
63202;DHT22;49296;48.188;11.566;2024-02-21T12:04:13;12.13;47.70
63202;DHT22;49296;48.188;11.566;2024-02-21T12:06:42;12.14;45.81
63202;DHT22;49296;48.188;11.566;2024-02-21T12:09:09;12.24;44.31
63202;DHT22;49296;48.188;11.566;2024-02-21T12:11:36;12.32;44.28
63202;DHT22;49296;48.188;11.566;2024-02-21T12:14:04;12.41;44.82
63202;DHT22;49296;48.188;11.566;2024-02-21T12:16:31;12.46;43.53
63202;DHT22;49296;48.188;11.566;2024-02-21T12:18:59;12.57;43.33
63202;DHT22;49296;48.188;11.566;2024-02-21T12:21:26;12.60;43.26
63202;DHT22;49296;48.188;11.566;2024-02-21T12:23:54;12.72;43.49
63202;DHT22;49296;48.188;11.566;2024-02-21T12:26:21;12.80;42.72
63202;DHT22;49296;48.188;11.566;2024-02-21T12:28:47;12.89;43.19
63202;DHT22;49296;48.188;11.566;2024-02-21T12:31:16;12.84;42.29
63202;DHT22;49296;48.188;11.566;2024-02-21T12:33:43;12.99;42.14
63202;DHT22;49296;48.188;11.566;2024-02-21T12:36:10;12.84;41.13
63202;DHT22;49296;48.188;11.566;2024-02-21T12:38:36;12.94;40.83
63202;DHT22;49296;48.188;11.566;2024-02-21T12:41:03;13.07;41.02
63202;DHT22;49296;48.188;11.566;2024-02-21T12:43:30;13.25;41.23
63202;DHT22;49296;48.188;11.566;2024-02-21T12:45:57;13.21;41.16
63202;DHT22;49296;48.188;11.566;2024-02-21T12:48:25;13.21;40.35
63202;DHT22;49296;48.188;11.566;2024-02-21T12:50:52;13.36;41.07
63202;DHT22;49296;48.188;11.566;2024-02-21T12:53:19;13.26;41.66
63202;DHT22;49296;48.188;11.566;2024-02-21T12:55:46;13.38;41.37
63202;DHT22;49296;48.188;11.566;2024-02-21T12:58:14;13.39;41.16
63202;DHT22;49296;48.188;11.566;2024-02-21T13:00:40;13.32;40.84
63202;DHT22;49296;48.188;11.566;2024-02-21T13:03:07;13.45;40.70
63202;DHT22;49296;48.188;11.566;2024-02-21T13:05:36;13.46;40.79
63202;DHT22;49296;48.188;11.566;2024-02-21T13:08:04;13.65;39.97
63202;DHT22;49296;48.188;11.566;2024-02-21T13:10:31;13.66;38.81
63202;DHT22;49296;48.188;11.566;2024-02-21T13:12:58;13.70;38.36
63202;DHT22;49296;48.188;11.566;2024-02-21T13:15:25;13.80;38.37
63202;DHT22;49296;48.188;11.566;2024-02-21T13:17:53;13.97;38.49
63202;DHT22;49296;48.188;11.566;2024-02-21T13:20:20;13.88;38.53
63202;DHT22;49296;48.188;11.566;2024-02-21T13:22:48;13.94;38.81
63202;DHT22;49296;48.188;11.566;2024-02-21T13:25:15;13.77;39.35
63202;DHT22;49296;48.188;11.566;2024-02-21T13:27:45;13.96;38.83
63202;DHT22;49296;48.188;11.566;2024-02-21T13:30:13;13.98;38.78
63202;DHT22;49296;48.188;11.566;2024-02-21T13:32:41;14.14;38.74
63202;DHT22;49296;48.188;11.566;2024-02-21T13:35:08;14.25;40.56
63202;DHT22;49296;48.188;11.566;2024-02-21T13:37:37;14.22;38.82
63202;DHT22;49296;48.188;11.566;2024-02-21T13:40:06;14.20;38.98
63202;DHT22;49296;48.188;11.566;2024-02-21T13:42:34;14.14;37.88
63202;DHT22;49296;48.188;11.566;2024-02-21T13:45:01;14.15;37.91
63202;DHT22;49296;48.188;11.566;2024-02-21T13:47:28;14.21;37.87
63202;DHT22;49296;48.188;11.566;2024-02-21T13:49:55;14.33;38.82
63202;DHT22;49296;48.188;11.566;2024-02-21T13:52:22;14.04;38.12
63202;DHT22;49296;48.188;11.566;2024-02-21T13:54:51;14.17;38.51
63202;DHT22;49296;48.188;11.566;2024-02-21T13:57:19;14.31;38.37
63202;DHT22;49296;48.188;11.566;2024-02-21T13:59:46;14.36;37.70
63202;DHT22;49296;48.188;11.566;2024-02-21T14:02:13;14.33;37.73
63202;DHT22;49296;48.188;11.566;2024-02-21T14:04:40;14.43;37.93
63202;DHT22;49296;48.188;11.566;2024-02-21T14:07:07;14.38;37.77
63202;DHT22;49296;48.188;11.566;2024-02-21T14:09:34;14.35;38.32
63202;DHT22;49296;48.188;11.566;2024-02-21T14:12:01;14.43;38.14
63202;DHT22;49296;48.188;11.566;2024-02-21T14:14:29;14.35;38.01
63202;DHT22;49296;48.188;11.566;2024-02-21T14:16:56;14.38;38.16
63202;DHT22;49296;48.188;11.566;2024-02-21T14:19:23;14.26;38.57
63202;DHT22;49296;48.188;11.566;2024-02-21T14:21:49;14.20;38.87
63202;DHT22;49296;48.188;11.566;2024-02-21T14:24:16;14.21;38.79
63202;DHT22;49296;48.188;11.566;2024-02-21T14:26:43;14.21;38.72
63202;DHT22;49296;48.188;11.566;2024-02-21T14:29:10;14.22;38.15
63202;DHT22;49296;48.188;11.566;2024-02-21T14:31:38;14.17;37.87
63202;DHT22;49296;48.188;11.566;2024-02-21T14:34:05;14.31;37.46
63202;DHT22;49296;48.188;11.566;2024-02-21T14:36:33;14.42;37.33
63202;DHT22;49296;48.188;11.566;2024-02-21T14:38:59;14.35;37.58
63202;DHT22;49296;48.188;11.566;2024-02-21T14:41:26;14.39;37.82
63202;DHT22;49296;48.188;11.566;2024-02-21T14:43:53;14.49;38.03
63202;DHT22;49296;48.188;11.566;2024-02-21T14:46:21;14.43;37.69
63202;DHT22;49296;48.188;11.566;2024-02-21T14:48:49;14.50;37.87
63202;DHT22;49296;48.188;11.566;2024-02-21T14:51:16;14.14;38.61
63202;DHT22;49296;48.188;11.566;2024-02-21T14:53:42;14.03;39.07
63202;DHT22;49296;48.188;11.566;2024-02-21T14:56:12;14.08;39.43
63202;DHT22;49296;48.188;11.566;2024-02-21T14:58:40;14.14;38.72
63202;DHT22;49296;48.188;11.566;2024-02-21T15:01:07;14.00;38.47
63202;DHT22;49296;48.188;11.566;2024-02-21T15:03:34;13.94;38.47
63202;DHT22;49296;48.188;11.566;2024-02-21T15:06:03;13.91;38.44
63202;DHT22;49296;48.188;11.566;2024-02-21T15:08:30;14.03;38.02
63202;DHT22;49296;48.188;11.566;2024-02-21T15:10:57;14.08;38.42
63202;DHT22;49296;48.188;11.566;2024-02-21T15:13:24;13.84;39.69
63202;DHT22;49296;48.188;11.566;2024-02-21T15:15:51;13.69;39.68
63202;DHT22;49296;48.188;11.566;2024-02-21T15:18:18;13.56;39.83
63202;DHT22;49296;48.188;11.566;2024-02-21T15:20:45;13.52;39.92
63202;DHT22;49296;48.188;11.566;2024-02-21T15:23:13;13.58;40.35
63202;DHT22;49296;48.188;11.566;2024-02-21T15:25:40;13.48;40.35
63202;DHT22;49296;48.188;11.566;2024-02-21T15:28:08;13.53;41.05
63202;DHT22;49296;48.188;11.566;2024-02-21T15:30:35;13.52;40.67
63202;DHT22;49296;48.188;11.566;2024-02-21T15:33:02;13.41;41.08
63202;DHT22;49296;48.188;11.566;2024-02-21T15:35:29;13.45;41.02
63202;DHT22;49296;48.188;11.566;2024-02-21T15:37:57;13.28;40.96
63202;DHT22;49296;48.188;11.566;2024-02-21T15:40:25;13.36;41.43
63202;DHT22;49296;48.188;11.566;2024-02-21T15:42:52;13.26;41.64
63202;DHT22;49296;48.188;11.566;2024-02-21T15:45:19;13.19;41.78
63202;DHT22;49296;48.188;11.566;2024-02-21T15:47:46;13.15;42.04
63202;DHT22;49296;48.188;11.566;2024-02-21T15:50:13;13.17;42.22
63202;DHT22;49296;48.188;11.566;2024-02-21T15:52:40;13.28;43.06
63202;DHT22;49296;48.188;11.566;2024-02-21T15:55:07;13.22;42.81
63202;DHT22;49296;48.188;11.566;2024-02-21T15:57:38;13.18;42.79
63202;DHT22;49296;48.188;11.566;2024-02-21T16:00:06;13.17;42.83
63202;DHT22;49296;48.188;11.566;2024-02-21T16:02:37;13.19;43.08
63202;DHT22;49296;48.188;11.566;2024-02-21T16:05:06;13.11;43.13
63202;DHT22;49296;48.188;11.566;2024-02-21T16:07:35;13.14;43.22
63202;DHT22;49296;48.188;11.566;2024-02-21T16:10:02;13.18;43.24
63202;DHT22;49296;48.188;11.566;2024-02-21T16:12:29;12.87;42.62
63202;DHT22;49296;48.188;11.566;2024-02-21T16:14:57;12.97;43.39
63202;DHT22;49296;48.188;11.566;2024-02-21T16:17:23;13.03;43.97
63202;DHT22;49296;48.188;11.566;2024-02-21T16:19:50;13.03;43.73
63202;DHT22;49296;48.188;11.566;2024-02-21T16:22:17;12.91;43.80
63202;DHT22;49296;48.188;11.566;2024-02-21T16:24:44;13.01;44.07
63202;DHT22;49296;48.188;11.566;2024-02-21T16:27:11;13.07;44.04
63202;DHT22;49296;48.188;11.566;2024-02-21T16:29:38;13.21;44.65
63202;DHT22;49296;48.188;11.566;2024-02-21T16:32:06;13.19;44.58
63202;DHT22;49296;48.188;11.566;2024-02-21T16:34:34;13.12;44.32
63202;DHT22;49296;48.188;11.566;2024-02-21T16:37:01;13.17;44.66
63202;DHT22;49296;48.188;11.566;2024-02-21T16:39:27;13.12;44.02
63202;DHT22;49296;48.188;11.566;2024-02-21T16:41:54;13.14;44.39
63202;DHT22;49296;48.188;11.566;2024-02-21T16:44:25;13.10;44.96
63202;DHT22;49296;48.188;11.566;2024-02-21T16:46:53;13.06;44.68
63202;DHT22;49296;48.188;11.566;2024-02-21T16:49:21;13.03;44.81
63202;DHT22;49296;48.188;11.566;2024-02-21T16:51:48;13.01;44.99
63202;DHT22;49296;48.188;11.566;2024-02-21T16:54:20;13.04;45.14
63202;DHT22;49296;48.188;11.566;2024-02-21T16:56:47;12.96;45.29
63202;DHT22;49296;48.188;11.566;2024-02-21T16:59:14;12.93;44.96
63202;DHT22;49296;48.188;11.566;2024-02-21T17:01:41;12.86;45.33
63202;DHT22;49296;48.188;11.566;2024-02-21T17:04:09;12.84;45.32
63202;DHT22;49296;48.188;11.566;2024-02-21T17:06:37;12.79;45.55
63202;DHT22;49296;48.188;11.566;2024-02-21T17:09:04;12.87;46.35
63202;DHT22;49296;48.188;11.566;2024-02-21T17:11:33;12.84;46.40
63202;DHT22;49296;48.188;11.566;2024-02-21T17:14:00;12.84;46.39
63202;DHT22;49296;48.188;11.566;2024-02-21T17:16:27;12.77;46.44
63202;DHT22;49296;48.188;11.566;2024-02-21T17:18:53;12.77;46.63
63202;DHT22;49296;48.188;11.566;2024-02-21T17:21:20;12.77;47.34
63202;DHT22;49296;48.188;11.566;2024-02-21T17:23:48;12.76;47.48
63202;DHT22;49296;48.188;11.566;2024-02-21T17:26:15;12.70;47.32
63202;DHT22;49296;48.188;11.566;2024-02-21T17:28:41;12.69;47.13
63202;DHT22;49296;48.188;11.566;2024-02-21T17:31:10;12.66;47.50
63202;DHT22;49296;48.188;11.566;2024-02-21T17:33:37;12.62;48.18
63202;DHT22;49296;48.188;11.566;2024-02-21T17:36:04;12.55;48.07
63202;DHT22;49296;48.188;11.566;2024-02-21T17:38:31;12.46;47.98
63202;DHT22;49296;48.188;11.566;2024-02-21T17:40:59;12.42;48.32
63202;DHT22;49296;48.188;11.566;2024-02-21T17:43:26;12.39;48.53
63202;DHT22;49296;48.188;11.566;2024-02-21T17:46:00;12.41;48.44
63202;DHT22;49296;48.188;11.566;2024-02-21T17:48:27;12.34;48.84
63202;DHT22;49296;48.188;11.566;2024-02-21T17:50:53;12.27;48.28
63202;DHT22;49296;48.188;11.566;2024-02-21T17:53:20;12.28;48.56
63202;DHT22;49296;48.188;11.566;2024-02-21T17:55:47;12.29;48.39
63202;DHT22;49296;48.188;11.566;2024-02-21T17:58:15;12.27;48.29
63202;DHT22;49296;48.188;11.566;2024-02-21T18:00:42;12.28;49.23
63202;DHT22;49296;48.188;11.566;2024-02-21T18:03:10;12.22;49.44
63202;DHT22;49296;48.188;11.566;2024-02-21T18:05:37;12.20;49.79
63202;DHT22;49296;48.188;11.566;2024-02-21T18:08:05;12.20;50.08
63202;DHT22;49296;48.188;11.566;2024-02-21T18:10:31;12.18;50.58
63202;DHT22;49296;48.188;11.566;2024-02-21T18:12:58;12.16;50.60
63202;DHT22;49296;48.188;11.566;2024-02-21T18:15:27;12.16;50.89
63202;DHT22;49296;48.188;11.566;2024-02-21T18:17:54;12.07;51.16
63202;DHT22;49296;48.188;11.566;2024-02-21T18:20:21;12.08;50.78
63202;DHT22;49296;48.188;11.566;2024-02-21T18:22:48;12.03;50.93
63202;DHT22;49296;48.188;11.566;2024-02-21T18:25:14;12.00;51.30
63202;DHT22;49296;48.188;11.566;2024-02-21T18:27:42;12.03;51.23
63202;DHT22;49296;48.188;11.566;2024-02-21T18:30:10;11.98;51.80
63202;DHT22;49296;48.188;11.566;2024-02-21T18:32:39;11.94;52.61
63202;DHT22;49296;48.188;11.566;2024-02-21T18:35:06;11.97;53.05
63202;DHT22;49296;48.188;11.566;2024-02-21T18:37:33;11.97;53.45
63202;DHT22;49296;48.188;11.566;2024-02-21T18:40:00;11.87;54.42
63202;DHT22;49296;48.188;11.566;2024-02-21T18:42:26;11.86;54.81
63202;DHT22;49296;48.188;11.566;2024-02-21T18:44:53;11.91;54.89
63202;DHT22;49296;48.188;11.566;2024-02-21T18:47:20;11.82;55.64
63202;DHT22;49296;48.188;11.566;2024-02-21T18:49:49;11.90;55.67
63202;DHT22;49296;48.188;11.566;2024-02-21T18:52:16;11.90;56.01
63202;DHT22;49296;48.188;11.566;2024-02-21T18:54:43;11.89;56.29
63202;DHT22;49296;48.188;11.566;2024-02-21T18:57:11;11.83;56.84
63202;DHT22;49296;48.188;11.566;2024-02-21T18:59:40;11.83;56.95
63202;DHT22;49296;48.188;11.566;2024-02-21T19:02:07;11.84;57.05
63202;DHT22;49296;48.188;11.566;2024-02-21T19:04:34;11.87;57.36
63202;DHT22;49296;48.188;11.566;2024-02-21T19:07:02;11.72;57.40
63202;DHT22;49296;48.188;11.566;2024-02-21T19:09:29;11.82;57.43
63202;DHT22;49296;48.188;11.566;2024-02-21T19:11:55;11.83;57.62
63202;DHT22;49296;48.188;11.566;2024-02-21T19:14:22;11.76;57.88
63202;DHT22;49296;48.188;11.566;2024-02-21T19:16:49;11.76;57.74
63202;DHT22;49296;48.188;11.566;2024-02-21T19:19:17;11.70;57.69
63202;DHT22;49296;48.188;11.566;2024-02-21T19:21:44;11.70;57.80
63202;DHT22;49296;48.188;11.566;2024-02-21T19:24:12;11.70;58.06
63202;DHT22;49296;48.188;11.566;2024-02-21T19:26:39;11.66;57.88
63202;DHT22;49296;48.188;11.566;2024-02-21T19:29:06;11.69;57.98
63202;DHT22;49296;48.188;11.566;2024-02-21T19:31:32;11.68;58.20
63202;DHT22;49296;48.188;11.566;2024-02-21T19:33:59;11.69;58.29
63202;DHT22;49296;48.188;11.566;2024-02-21T19:36:26;11.66;58.34
63202;DHT22;49296;48.188;11.566;2024-02-21T19:38:52;11.66;58.30
63202;DHT22;49296;48.188;11.566;2024-02-21T19:41:21;11.66;58.50
63202;DHT22;49296;48.188;11.566;2024-02-21T19:43:47;11.58;58.65
63202;DHT22;49296;48.188;11.566;2024-02-21T19:46:17;11.65;58.97
63202;DHT22;49296;48.188;11.566;2024-02-21T19:48:44;11.62;59.17
63202;DHT22;49296;48.188;11.566;2024-02-21T19:51:11;11.63;58.99
63202;DHT22;49296;48.188;11.566;2024-02-21T19:53:37;11.61;59.05
63202;DHT22;49296;48.188;11.566;2024-02-21T19:56:05;11.62;59.19
63202;DHT22;49296;48.188;11.566;2024-02-21T19:58:34;11.65;59.32
63202;DHT22;49296;48.188;11.566;2024-02-21T20:01:00;11.62;59.19
63202;DHT22;49296;48.188;11.566;2024-02-21T20:03:28;11.62;59.14
63202;DHT22;49296;48.188;11.566;2024-02-21T20:05:55;11.62;59.15
63202;DHT22;49296;48.188;11.566;2024-02-21T20:08:22;11.54;59.08
63202;DHT22;49296;48.188;11.566;2024-02-21T20:10:49;11.52;59.08
63202;DHT22;49296;48.188;11.566;2024-02-21T20:13:17;11.46;58.64
63202;DHT22;49296;48.188;11.566;2024-02-21T20:15:45;11.45;58.17
63202;DHT22;49296;48.188;11.566;2024-02-21T20:18:12;11.41;57.02
63202;DHT22;49296;48.188;11.566;2024-02-21T20:20:38;11.24;56.18
63202;DHT22;49296;48.188;11.566;2024-02-21T20:23:06;11.27;56.14
63202;DHT22;49296;48.188;11.566;2024-02-21T20:25:38;11.23;55.82
63202;DHT22;49296;48.188;11.566;2024-02-21T20:28:05;11.10;56.22
63202;DHT22;49296;48.188;11.566;2024-02-21T20:30:32;11.06;56.32
63202;DHT22;49296;48.188;11.566;2024-02-21T20:33:00;11.13;56.58
63202;DHT22;49296;48.188;11.566;2024-02-21T20:35:27;11.25;56.57
63202;DHT22;49296;48.188;11.566;2024-02-21T20:37:55;11.35;56.71
63202;DHT22;49296;48.188;11.566;2024-02-21T20:40:22;11.41;56.74
63202;DHT22;49296;48.188;11.566;2024-02-21T20:42:48;11.43;56.12
63202;DHT22;49296;48.188;11.566;2024-02-21T20:45:15;11.51;56.15
63202;DHT22;49296;48.188;11.566;2024-02-21T20:47:43;11.45;56.28
63202;DHT22;49296;48.188;11.566;2024-02-21T20:50:11;11.52;55.19
63202;DHT22;49296;48.188;11.566;2024-02-21T20:52:38;11.54;55.21
63202;DHT22;49296;48.188;11.566;2024-02-21T20:55:05;11.57;55.31
63202;DHT22;49296;48.188;11.566;2024-02-21T20:57:32;11.42;54.26
63202;DHT22;49296;48.188;11.566;2024-02-21T20:59:59;11.30;54.34
63202;DHT22;49296;48.188;11.566;2024-02-21T21:02:25;11.30;54.35
63202;DHT22;49296;48.188;11.566;2024-02-21T21:04:52;11.32;54.57
63202;DHT22;49296;48.188;11.566;2024-02-21T21:07:21;11.35;54.34
63202;DHT22;49296;48.188;11.566;2024-02-21T21:09:47;11.30;54.32
63202;DHT22;49296;48.188;11.566;2024-02-21T21:12:14;11.42;54.14
63202;DHT22;49296;48.188;11.566;2024-02-21T21:14:41;11.51;54.04
63202;DHT22;49296;48.188;11.566;2024-02-21T21:17:08;11.48;53.60
63202;DHT22;49296;48.188;11.566;2024-02-21T21:19:35;11.45;53.66
63202;DHT22;49296;48.188;11.566;2024-02-21T21:22:02;11.46;53.73
63202;DHT22;49296;48.188;11.566;2024-02-21T21:24:31;11.41;53.72
63202;DHT22;49296;48.188;11.566;2024-02-21T21:26:58;11.34;53.76
63202;DHT22;49296;48.188;11.566;2024-02-21T21:29:25;11.35;53.88
63202;DHT22;49296;48.188;11.566;2024-02-21T21:31:52;11.36;53.99
63202;DHT22;49296;48.188;11.566;2024-02-21T21:34:19;11.42;53.82
63202;DHT22;49296;48.188;11.566;2024-02-21T21:36:46;11.43;53.75
63202;DHT22;49296;48.188;11.566;2024-02-21T21:39:12;11.48;53.66
63202;DHT22;49296;48.188;11.566;2024-02-21T21:41:43;11.52;53.68
63202;DHT22;49296;48.188;11.566;2024-02-21T21:44:09;11.48;53.94
63202;DHT22;49296;48.188;11.566;2024-02-21T21:46:36;11.49;53.83
63202;DHT22;49296;48.188;11.566;2024-02-21T21:49:05;11.43;53.61
63202;DHT22;49296;48.188;11.566;2024-02-21T21:51:31;11.54;53.62
63202;DHT22;49296;48.188;11.566;2024-02-21T21:53:58;11.51;53.72
63202;DHT22;49296;48.188;11.566;2024-02-21T21:56:25;11.52;53.80
63202;DHT22;49296;48.188;11.566;2024-02-21T21:58:53;11.58;53.88
63202;DHT22;49296;48.188;11.566;2024-02-21T22:01:19;11.61;53.77
63202;DHT22;49296;48.188;11.566;2024-02-21T22:03:46;11.57;54.03
63202;DHT22;49296;48.188;11.566;2024-02-21T22:06:13;11.55;54.10
63202;DHT22;49296;48.188;11.566;2024-02-21T22:08:39;11.59;54.34
63202;DHT22;49296;48.188;11.566;2024-02-21T22:11:06;11.61;54.25
63202;DHT22;49296;48.188;11.566;2024-02-21T22:13:38;11.48;54.47
63202;DHT22;49296;48.188;11.566;2024-02-21T22:16:06;11.21;54.85
63202;DHT22;49296;48.188;11.566;2024-02-21T22:18:33;11.17;55.14
63202;DHT22;49296;48.188;11.566;2024-02-21T22:21:00;11.27;55.06
63202;DHT22;49296;48.188;11.566;2024-02-21T22:23:27;11.10;55.21
63202;DHT22;49296;48.188;11.566;2024-02-21T22:25:54;11.17;55.31
63202;DHT22;49296;48.188;11.566;2024-02-21T22:28:21;11.25;55.21
63202;DHT22;49296;48.188;11.566;2024-02-21T22:30:49;11.18;55.44
63202;DHT22;49296;48.188;11.566;2024-02-21T22:33:17;10.99;56.18
63202;DHT22;49296;48.188;11.566;2024-02-21T22:35:44;10.90;56.54
63202;DHT22;49296;48.188;11.566;2024-02-21T22:38:11;10.90;56.59
63202;DHT22;49296;48.188;11.566;2024-02-21T22:40:37;11.25;56.48
63202;DHT22;49296;48.188;11.566;2024-02-21T22:43:04;11.32;55.25
63202;DHT22;49296;48.188;11.566;2024-02-21T22:45:31;11.51;54.95
63202;DHT22;49296;48.188;11.566;2024-02-21T22:47:58;11.63;54.68
63202;DHT22;49296;48.188;11.566;2024-02-21T22:50:26;11.69;54.48
63202;DHT22;49296;48.188;11.566;2024-02-21T22:52:57;11.79;54.37
63202;DHT22;49296;48.188;11.566;2024-02-21T22:55:38;11.70;54.81
63202;DHT22;49296;48.188;11.566;2024-02-21T22:58:28;11.61;54.62
63202;DHT22;49296;48.188;11.566;2024-02-21T23:00:55;11.68;54.53
63202;DHT22;49296;48.188;11.566;2024-02-21T23:03:22;11.61;54.54
63202;DHT22;49296;48.188;11.566;2024-02-21T23:05:50;11.65;54.46
63202;DHT22;49296;48.188;11.566;2024-02-21T23:08:17;11.58;54.65
63202;DHT22;49296;48.188;11.566;2024-02-21T23:10:43;11.57;55.00
63202;DHT22;49296;48.188;11.566;2024-02-21T23:13:11;11.62;55.17
63202;DHT22;49296;48.188;11.566;2024-02-21T23:15:38;11.68;55.26
63202;DHT22;49296;48.188;11.566;2024-02-21T23:18:05;11.68;55.88
63202;DHT22;49296;48.188;11.566;2024-02-21T23:20:32;11.52;56.19